Time;durP1;ratioP1;P1;durP2;ratioP2;P2;SDS_P1;SDS_P2;PMS_P1;PMS_P2;Temp;Humidity;BMP_temperature;BMP_pressure;BME280_temperature;BME280_humidity;BME280_pressure;Samples;Min_cycle;Max_cycle;Signal;HPM_P1;HPM_P2
2022/07/05 00:01:33;;;;;;;15.87;4.27;;;20.80;56.50;;;;;;5047904;28;20222;-89
2022/07/05 00:04:01;;;;;;;26.67;7.77;;;20.70;56.60;;;;;;5044942;28;20266;-88
2022/07/05 00:06:28;;;;;;;8.80;3.17;;;20.70;56.70;;;;;;5048206;28;20303;-89
2022/07/05 00:08:55;;;;;;;9.00;3.50;;;20.60;57.40;;;;;;5044240;28;20204;-89
2022/07/05 00:11:22;;;;;;;8.83;3.90;;;20.60;56.80;;;;;;5049087;28;20200;-89
2022/07/05 00:13:49;;;;;;;9.30;3.23;;;20.60;56.80;;;;;;5045377;28;20276;-88
2022/07/05 00:16:16;;;;;;;10.50;4.10;;;20.60;57.00;;;;;;5049466;28;20661;-90
2022/07/05 00:18:44;;;;;;;9.30;3.43;;;20.50;56.80;;;;;;5047986;28;20204;-89
2022/07/05 00:21:11;;;;;;;12.73;4.80;;;20.50;57.00;;;;;;5049020;28;20320;-90
2022/07/05 00:23:38;;;;;;;10.73;3.93;;;20.50;57.10;;;;;;5045125;28;20868;-89
2022/07/05 00:26:05;;;;;;;8.73;3.73;;;20.50;57.20;;;;;;5047036;28;20287;-89
2022/07/05 00:28:33;;;;;;;10.63;3.93;;;20.50;57.20;;;;;;5048879;28;20713;-88
2022/07/05 00:31:00;;;;;;;13.23;4.53;;;20.40;57.50;;;;;;5045536;28;20741;-89
2022/07/05 00:33:27;;;;;;;12.43;4.37;;;20.40;57.40;;;;;;5044059;28;20286;-90
2022/07/05 00:35:56;;;;;;;11.37;4.00;;;20.40;57.30;;;;;;5044323;28;20317;-89
2022/07/05 00:38:23;;;;;;;9.07;3.53;;;20.40;57.70;;;;;;5048680;28;20304;-89
2022/07/05 00:40:50;;;;;;;13.53;4.90;;;20.30;57.60;;;;;;5047050;28;20727;-89
2022/07/05 00:43:20;;;;;;;14.20;4.83;;;20.30;57.70;;;;;;5044126;28;20823;-89
2022/07/05 00:45:47;;;;;;;19.40;5.90;;;20.30;58.00;;;;;;5047597;28;20236;-89
2022/07/05 00:48:14;;;;;;;10.00;4.27;;;20.30;57.80;;;;;;5048880;28;20214;-89
2022/07/05 00:50:42;;;;;;;12.30;4.70;;;20.20;57.90;;;;;;5059895;28;20210;-89
2022/07/05 00:53:11;;;;;;;11.23;4.30;;;20.20;57.70;;;;;;5063035;28;20200;-89
2022/07/05 00:55:39;;;;;;;12.50;4.40;;;20.20;58.00;;;;;;5055568;28;20631;-89
2022/07/05 00:58:06;;;;;;;9.60;3.80;;;20.20;58.00;;;;;;5049535;28;20304;-89
2022/07/05 01:00:34;;;;;;;10.13;3.73;;;20.20;57.80;;;;;;5048233;28;20226;-89
2022/07/05 01:03:01;;;;;;;9.10;3.87;;;20.10;57.90;;;;;;5044467;28;20262;-89
2022/07/05 01:05:29;;;;;;;14.47;5.03;;;20.10;57.90;;;;;;5044657;28;20219;-89
2022/07/05 01:07:57;;;;;;;16.13;5.63;;;20.10;57.90;;;;;;5047096;28;20300;-90
2022/07/05 01:10:28;;;;;;;8.43;3.93;;;20.00;57.80;;;;;;5047290;28;20287;-89
2022/07/05 01:12:55;;;;;;;10.70;4.93;;;20.00;58.10;;;;;;5046440;28;20208;-89
2022/07/05 01:15:23;;;;;;;11.07;4.27;;;20.00;58.00;;;;;;5048684;28;20725;-89
2022/07/05 01:17:50;;;;;;;10.60;4.00;;;20.00;58.30;;;;;;5046093;28;20282;-89
2022/07/05 01:20:17;;;;;;;12.83;5.13;;;19.90;58.30;;;;;;5037433;28;20314;-89
2022/07/05 01:22:59;;;;;;;10.00;4.50;;;19.90;58.50;;;;;;5046323;28;20730;-88
2022/07/05 01:25:29;;;;;;;23.03;7.73;;;19.90;58.90;;;;;;5045714;28;20211;-89
2022/07/05 01:28:02;;;;;;;14.50;5.47;;;19.80;58.40;;;;;;5049039;28;20207;-89
2022/07/05 01:30:31;;;;;;;11.13;4.60;;;19.80;58.40;;;;;;5044461;28;20792;-88
2022/07/05 01:32:58;;;;;;;12.17;4.83;;;19.80;58.40;;;;;;5046351;28;20651;-89
2022/07/05 01:35:24;;;;;;;17.03;5.13;;;19.80;58.40;;;;;;5044663;28;20632;-89
2022/07/05 01:37:52;;;;;;;10.37;4.90;;;19.70;58.50;;;;;;5045112;28;20302;-89
2022/07/05 01:40:21;;;;;;;13.70;4.87;;;19.80;58.60;;;;;;5045764;28;20411;-89
2022/07/05 01:42:48;;;;;;;15.57;4.90;;;19.70;58.80;;;;;;5046087;28;20269;-89
2022/07/05 01:45:38;;;;;;;13.73;5.40;;;19.70;59.00;;;;;;5047006;28;20320;-89
2022/07/05 01:48:05;;;;;;;12.90;5.27;;;19.60;59.20;;;;;;5045987;28;20575;-89
2022/07/05 01:50:37;;;;;;;12.40;5.53;;;19.70;59.10;;;;;;5045683;28;20210;-89
2022/07/05 01:53:04;;;;;;;10.17;4.33;;;19.60;59.30;;;;;;5045824;28;20640;-90
2022/07/05 01:55:33;;;;;;;11.40;5.13;;;19.60;59.40;;;;;;5043486;28;20207;-88
2022/07/05 01:58:01;;;;;;;15.93;5.67;;;19.60;59.60;;;;;;5044325;28;20281;-89
2022/07/05 02:00:28;;;;;;;10.57;4.97;;;19.60;59.70;;;;;;5046374;28;20773;-90
2022/07/05 02:02:57;;;;;;;10.07;4.37;;;19.60;59.70;;;;;;5047559;28;20206;-89
2022/07/05 02:05:24;;;;;;;13.63;5.10;;;19.60;59.60;;;;;;5045922;28;20213;-89
2022/07/05 02:07:52;;;;;;;8.70;4.00;;;19.60;59.50;;;;;;5047309;28;20218;-88
2022/07/05 02:10:20;;;;;;;16.27;5.33;;;19.60;59.60;;;;;;5044839;28;20290;-87
2022/07/05 02:12:48;;;;;;;9.47;4.40;;;19.60;59.70;;;;;;5044748;28;20242;-88
2022/07/05 02:15:15;;;;;;;14.07;4.33;;;19.60;59.70;;;;;;5046411;28;20262;-88
2022/07/05 02:17:42;;;;;;;11.40;4.50;;;19.60;59.60;;;;;;5045725;28;20234;-90
2022/07/05 02:20:10;;;;;;;12.73;5.03;;;19.60;59.60;;;;;;5046728;28;20617;-88
2022/07/05 02:22:37;;;;;;;13.97;5.37;;;19.60;59.60;;;;;;5045409;28;20278;-89
2022/07/05 02:25:05;;;;;;;18.37;7.00;;;19.50;59.50;;;;;;5045602;28;20243;-89
2022/07/05 02:27:32;;;;;;;12.10;5.20;;;19.50;59.60;;;;;;5047397;28;20230;-89
2022/07/05 02:30:01;;;;;;;10.37;4.97;;;19.50;59.60;;;;;;5046624;28;20298;-89
2022/07/05 02:32:30;;;;;;;11.43;5.20;;;19.50;59.60;;;;;;5046896;28;20294;-89
2022/07/05 02:34:57;;;;;;;24.30;7.57;;;19.40;59.50;;;;;;5044215;28;20222;-89
2022/07/05 02:37:24;;;;;;;12.20;5.17;;;19.40;59.70;;;;;;5047460;28;20278;-89
2022/07/05 02:39:51;;;;;;;10.53;4.80;;;19.40;59.90;;;;;;5044746;28;20624;-89
2022/07/05 02:42:18;;;;;;;9.00;4.63;;;19.40;59.90;;;;;;5046303;28;20282;-88
2022/07/05 02:44:45;;;;;;;11.90;4.80;;;19.30;60.00;;;;;;5044394;28;20657;-88
2022/07/05 02:47:13;;;;;;;11.37;5.07;;;19.30;60.10;;;;;;5045080;28;21037;-89
2022/07/05 02:49:41;;;;;;;10.53;4.50;;;19.30;60.30;;;;;;5039837;28;20203;-91
2022/07/05 02:52:11;;;;;;;18.33;6.57;;;19.30;60.10;;;;;;5046281;28;20658;-90
2022/07/05 02:54:39;;;;;;;10.77;4.53;;;19.30;60.40;;;;;;5045556;28;20294;-89
2022/07/05 02:57:06;;;;;;;12.40;4.83;;;19.20;60.20;;;;;;5045961;28;20306;-89
2022/07/05 02:59:33;;;;;;;20.20;7.97;;;19.30;60.40;;;;;;5044605;28;20288;-89
2022/07/05 03:02:00;;;;;;;8.93;4.37;;;19.30;61.20;;;;;;5045531;28;20772;-89
2022/07/05 03:04:29;;;;;;;20.67;8.20;;;19.30;60.50;;;;;;5048915;28;20295;-89
2022/07/05 03:06:56;;;;;;;12.07;4.83;;;19.20;60.50;;;;;;5048328;28;20316;-90
2022/07/05 03:09:23;;;;;;;20.40;7.37;;;19.20;60.50;;;;;;5049692;28;20215;-91
2022/07/05 03:11:51;;;;;;;24.63;8.90;;;19.20;61.00;;;;;;5047420;28;20575;-89
2022/07/05 03:14:19;;;;;;;11.53;4.80;;;19.20;61.20;;;;;;5049601;28;20249;-89
2022/07/05 03:16:48;;;;;;;15.07;5.73;;;19.20;61.20;;;;;;5050798;28;20216;-90
2022/07/05 03:19:15;;;;;;;16.57;6.37;;;19.10;61.30;;;;;;5047900;28;20207;-89
2022/07/05 03:21:45;;;;;;;14.77;5.30;;;19.10;61.30;;;;;;5050573;28;20234;-88
2022/07/05 03:24:12;;;;;;;10.47;5.10;;;19.10;61.50;;;;;;5049582;28;20202;-89
2022/07/05 03:26:39;;;;;;;14.73;6.07;;;19.10;61.40;;;;;;5050601;28;20238;-88
2022/07/05 03:29:06;;;;;;;12.77;5.17;;;19.10;61.30;;;;;;5049401;28;20371;-89
2022/07/05 03:31:33;;;;;;;10.30;5.53;;;19.10;61.30;;;;;;5050459;28;20246;-89
2022/07/05 03:34:03;;;;;;;13.63;6.23;;;19.10;61.40;;;;;;5046881;28;20299;-89
2022/07/05 03:36:30;;;;;;;11.07;5.57;;;19.10;61.40;;;;;;5050366;28;20553;-88
2022/07/05 03:38:58;;;;;;;15.30;6.27;;;19.00;61.50;;;;;;5048760;28;20289;-88
2022/07/05 03:41:25;;;;;;;11.67;5.23;;;19.00;61.80;;;;;;5050473;28;20222;-90
2022/07/05 03:43:53;;;;;;;9.30;5.10;;;19.00;61.80;;;;;;5045719;28;20227;-90
2022/07/05 03:46:20;;;;;;;20.63;7.13;;;19.00;62.10;;;;;;5039187;28;20293;-91
2022/07/05 03:48:47;;;;;;;11.53;5.63;;;19.00;61.80;;;;;;5049913;28;20206;-89
2022/07/05 03:51:14;;;;;;;11.97;5.30;;;19.00;61.80;;;;;;5049999;28;20237;-91
2022/07/05 03:53:41;;;;;;;14.27;5.63;;;19.00;61.80;;;;;;5045169;28;20265;-92
2022/07/05 03:56:09;;;;;;;11.33;5.53;;;18.90;61.80;;;;;;5048228;28;20210;-89
2022/07/05 03:58:40;;;;;;;16.07;6.47;;;18.90;62.00;;;;;;5048931;28;20723;-90
2022/07/05 04:01:07;;;;;;;15.63;7.13;;;18.90;61.70;;;;;;5048777;28;20681;-89
2022/07/05 04:03:34;;;;;;;14.53;6.60;;;18.90;61.80;;;;;;5048460;28;20205;-89
2022/07/05 04:06:01;;;;;;;15.60;6.30;;;18.90;61.90;;;;;;5047600;28;20198;-89
2022/07/05 04:08:28;;;;;;;23.63;8.17;;;18.90;62.00;;;;;;5048711;28;20209;-88
2022/07/05 04:10:55;;;;;;;12.43;6.07;;;18.80;62.00;;;;;;5049930;28;20223;-89
2022/07/05 04:13:23;;;;;;;19.87;8.73;;;18.80;62.10;;;;;;5048632;28;20662;-88
2022/07/05 04:15:50;;;;;;;13.67;6.07;;;18.80;62.30;;;;;;5049021;28;20578;-89
2022/07/05 04:18:17;;;;;;;16.87;6.67;;;18.70;62.10;;;;;;5038191;28;20243;-89
2022/07/05 04:20:44;;;;;;;16.57;6.80;;;18.70;62.20;;;;;;5048622;28;20213;-90
2022/07/05 04:23:11;;;;;;;12.00;5.57;;;18.70;62.30;;;;;;5049091;28;20315;-89
2022/07/05 04:25:38;;;;;;;14.27;6.33;;;18.70;62.50;;;;;;5049259;28;20206;-88
2022/07/05 04:28:08;;;;;;;20.50;7.30;;;18.70;62.60;;;;;;5046209;28;20284;-89
2022/07/05 04:30:37;;;;;;;13.30;6.47;;;18.60;62.90;;;;;;5049241;28;20614;-88
2022/07/05 04:33:04;;;;;;;11.03;5.60;;;18.60;62.90;;;;;;5047653;28;20268;-89
2022/07/05 04:35:31;;;;;;;12.93;6.80;;;18.60;62.90;;;;;;5052291;28;20206;-89
2022/07/05 04:37:59;;;;;;;15.53;6.67;;;18.60;63.00;;;;;;5057735;28;20206;-89
2022/07/05 04:40:27;;;;;;;10.93;6.27;;;18.60;63.10;;;;;;5060837;28;20236;-88
2022/07/05 04:42:55;;;;;;;12.47;6.27;;;18.60;63.20;;;;;;5050961;28;20241;-90
2022/07/05 04:45:22;;;;;;;21.60;8.50;;;18.60;63.50;;;;;;5048464;28;20542;-89
2022/07/05 04:47:51;;;;;;;25.53;8.23;;;18.50;63.30;;;;;;5046624;28;20233;-89
2022/07/05 04:50:18;;;;;;;14.83;7.20;;;18.50;63.60;;;;;;5048986;28;20311;-88
2022/07/05 04:52:45;;;;;;;25.97;9.20;;;18.50;63.60;;;;;;5046574;28;20206;-87
2022/07/05 04:55:12;;;;;;;17.77;7.07;;;18.50;64.10;;;;;;5048279;28;20209;-88
2022/07/05 04:57:39;;;;;;;15.60;6.63;;;18.50;64.10;;;;;;5031722;28;20291;-89
2022/07/05 05:00:07;;;;;;;20.23;8.47;;;18.50;64.10;;;;;;5047910;28;20209;-89
2022/07/05 05:02:34;;;;;;;17.17;6.93;;;18.50;64.20;;;;;;5027832;28;20311;-89
2022/07/05 05:05:03;;;;;;;17.63;7.87;;;18.50;64.20;;;;;;5048331;28;20210;-89
2022/07/05 05:07:31;;;;;;;17.43;7.10;;;18.50;64.60;;;;;;5046355;28;20201;-90
2022/07/05 05:09:58;;;;;;;11.57;6.60;;;18.50;64.50;;;;;;5049623;28;20234;-89
2022/07/05 05:12:28;;;;;;;24.30;10.17;;;18.50;64.60;;;;;;5043439;28;20650;-89
2022/07/05 05:14:55;;;;;;;15.07;7.00;;;18.50;64.70;;;;;;5048118;28;20233;-87
2022/07/05 05:17:22;;;;;;;23.33;9.53;;;18.60;65.10;;;;;;5045626;28;20244;-88
2022/07/05 05:19:50;;;;;;;14.20;6.20;;;18.50;65.10;;;;;;5046529;28;20206;-88
2022/07/05 05:22:19;;;;;;;16.83;7.80;;;18.60;65.50;;;;;;5045927;28;20241;-90
2022/07/05 05:24:46;;;;;;;16.67;7.93;;;18.60;65.60;;;;;;5044288;28;20201;-89
2022/07/05 05:27:13;;;;;;;11.93;6.27;;;18.60;65.50;;;;;;5044844;28;20749;-89
2022/07/05 05:29:40;;;;;;;18.20;8.33;;;18.70;65.80;;;;;;5046463;28;20223;-88
2022/07/05 05:32:07;;;;;;;14.17;7.43;;;18.70;66.00;;;;;;5043408;28;20236;-89
2022/07/05 05:34:34;;;;;;;13.27;7.07;;;18.70;66.20;;;;;;5047879;28;20199;-89
2022/07/05 05:37:01;;;;;;;13.10;7.67;;;18.70;66.40;;;;;;5044878;28;20213;-88
2022/07/05 05:39:30;;;;;;;14.43;6.90;;;18.70;66.50;;;;;;5047720;28;20285;-89
2022/07/05 05:41:57;;;;;;;17.13;7.23;;;18.80;66.60;;;;;;5046821;28;20240;-88
2022/07/05 05:44:24;;;;;;;15.50;7.03;;;18.80;66.30;;;;;;5047665;28;20214;-88
2022/07/05 05:46:51;;;;;;;16.17;7.77;;;18.80;66.40;;;;;;5045821;28;20210;-88
2022/07/05 05:49:18;;;;;;;16.60;7.47;;;18.90;66.60;;;;;;5044769;28;20202;-88
2022/07/05 05:51:47;;;;;;;17.50;8.57;;;18.90;66.50;;;;;;5044856;28;20218;-88
2022/07/05 05:54:14;;;;;;;13.17;6.73;;;18.90;66.70;;;;;;5047701;28;20292;-88
2022/07/05 05:56:44;;;;;;;13.30;7.27;;;19.00;66.70;;;;;;5046247;28;20219;-88
2022/07/05 05:59:11;;;;;;;15.80;7.80;;;19.00;67.20;;;;;;5047398;28;20724;-87
2022/07/05 06:01:38;;;;;;;11.70;6.50;;;19.10;67.30;;;;;;5046532;28;20211;-89
2022/07/05 06:04:05;;;;;;;17.90;7.67;;;19.10;67.60;;;;;;5046966;28;20210;-89
2022/07/05 06:06:32;;;;;;;15.00;7.57;;;19.10;67.60;;;;;;5046104;28;20557;-90
2022/07/05 06:08:59;;;;;;;17.67;8.00;;;19.20;67.70;;;;;;5047837;28;20277;-89
2022/07/05 06:11:27;;;;;;;16.50;7.40;;;19.20;67.70;;;;;;5032763;28;20230;-89
2022/07/05 06:13:57;;;;;;;15.73;7.07;;;19.30;67.80;;;;;;5027594;28;20261;-87
2022/07/05 06:16:24;;;;;;;17.83;8.50;;;19.30;68.20;;;;;;5041057;28;20211;-89
2022/07/05 06:18:51;;;;;;;13.80;7.63;;;19.30;68.00;;;;;;5047622;28;20610;-88
2022/07/05 06:21:18;;;;;;;12.33;6.27;;;19.40;68.10;;;;;;5046576;28;20243;-89
2022/07/05 06:23:45;;;;;;;15.23;7.77;;;19.50;68.20;;;;;;5044546;28;20385;-88
2022/07/05 06:26:12;;;;;;;11.67;6.93;;;19.50;68.20;;;;;;5047634;28;20716;-89
2022/07/05 06:28:39;;;;;;;13.57;6.73;;;19.60;68.50;;;;;;5043705;28;20211;-89
2022/07/05 06:31:07;;;;;;;16.23;7.83;;;19.70;68.70;;;;;;5030186;28;20924;-90
2022/07/05 06:33:34;;;;;;;11.57;7.03;;;19.70;69.10;;;;;;5028058;28;20230;-89
2022/07/05 06:36:01;;;;;;;14.13;6.77;;;19.80;68.90;;;;;;5046122;28;20257;-89
2022/07/05 06:38:28;;;;;;;13.77;6.87;;;19.90;69.00;;;;;;5040380;28;20200;-88
2022/07/05 06:40:56;;;;;;;14.03;7.20;;;19.90;69.90;;;;;;5040104;28;20529;-88
2022/07/05 06:43:23;;;;;;;19.40;8.47;;;20.00;69.30;;;;;;5039647;28;20267;-88
2022/07/05 06:45:59;;;;;;;8.97;5.80;;;20.10;69.30;;;;;;5039687;28;20254;-88
2022/07/05 06:48:28;;;;;;;16.30;7.13;;;20.20;69.90;;;;;;5039760;28;20206;-89
2022/07/05 06:50:56;;;;;;;13.10;6.20;;;20.20;69.60;;;;;;5039924;28;20613;-89
2022/07/05 06:53:22;;;;;;;13.47;7.03;;;20.30;69.10;;;;;;5039562;28;20296;-90
2022/07/05 06:55:50;;;;;;;18.03;7.53;;;20.40;69.10;;;;;;5039547;28;20209;-88
2022/07/05 06:58:17;;;;;;;17.47;7.90;;;20.50;69.20;;;;;;5039609;28;20315;-89
2022/07/05 07:00:45;;;;;;;13.17;6.67;;;20.60;69.40;;;;;;5039213;28;20642;-88
2022/07/05 07:03:12;;;;;;;14.07;6.73;;;20.60;69.30;;;;;;5039406;28;20514;-88
2022/07/05 07:05:40;;;;;;;14.77;6.97;;;20.70;69.40;;;;;;5039440;28;20228;-90
2022/07/05 07:10:52;;;;;;;15.90;5.63;;;20.90;69.40;;;;;;5038546;28;20869;-89
2022/07/05 07:13:20;;;;;;;14.17;6.40;;;21.00;69.40;;;;;;5039823;28;20226;-89
2022/07/05 07:15:49;;;;;;;18.67;6.10;;;21.10;69.00;;;;;;5038896;28;20201;-89
2022/07/05 07:18:16;;;;;;;13.60;5.70;;;21.10;68.80;;;;;;5039753;28;20201;-89
2022/07/05 07:20:45;;;;;;;12.07;4.67;;;21.20;68.70;;;;;;5039044;28;20734;-89
2022/07/05 07:23:12;;;;;;;12.00;5.00;;;21.30;68.50;;;;;;5039011;28;20307;-90
2022/07/05 07:25:39;;;;;;;12.73;5.00;;;21.40;67.40;;;;;;5039260;28;20342;-89
2022/07/05 07:28:06;;;;;;;9.93;4.37;;;21.50;67.40;;;;;;5038392;28;20323;-89
2022/07/05 07:30:33;;;;;;;7.80;3.70;;;21.60;67.00;;;;;;5039731;28;20649;-88
2022/07/05 07:33:00;;;;;;;8.53;4.10;;;21.70;66.70;;;;;;5040031;28;20217;-90
2022/07/05 07:35:28;;;;;;;10.63;4.70;;;21.80;66.40;;;;;;5039998;28;20779;-89
2022/07/05 07:37:56;;;;;;;7.37;3.30;;;21.80;65.90;;;;;;5046835;28;20204;-90
2022/07/05 07:40:23;;;;;;;11.90;4.53;;;21.90;65.50;;;;;;5051183;28;20232;-90
2022/07/05 07:42:50;;;;;;;8.47;3.07;;;22.00;65.10;;;;;;5050864;28;20228;-89
2022/07/05 07:45:17;;;;;;;11.63;3.10;;;22.10;65.30;;;;;;5050077;28;20277;-90
2022/07/05 07:47:44;;;;;;;7.83;3.23;;;22.20;64.00;;;;;;5037741;28;20210;-88
2022/07/05 07:50:11;;;;;;;12.57;3.87;;;22.20;63.60;;;;;;5030130;28;20205;-88
2022/07/05 07:52:40;;;;;;;7.37;3.33;;;22.30;63.30;;;;;;5040979;28;20297;-88
2022/07/05 07:55:09;;;;;;;11.73;4.53;;;22.40;63.20;;;;;;5049218;28;20292;-91
2022/07/05 07:57:39;;;;;;;6.60;2.87;;;22.40;62.90;;;;;;5049995;28;20623;-90
2022/07/05 08:00:07;;;;;;;11.37;4.57;;;22.50;62.50;;;;;;5041816;28;20204;-89
2022/07/05 08:02:34;;;;;;;10.13;3.87;;;22.50;62.30;;;;;;5048017;28;20973;-90
2022/07/05 08:05:01;;;;;;;8.17;3.10;;;22.50;62.10;;;;;;5045454;28;20665;-90
2022/07/05 08:07:29;;;;;;;12.23;4.93;;;22.60;62.10;;;;;;5049715;28;20199;-89
2022/07/05 08:09:56;;;;;;;7.83;3.27;;;22.70;62.50;;;;;;5044699;28;20293;-90
2022/07/05 08:12:24;;;;;;;13.53;5.10;;;22.70;62.40;;;;;;5048401;28;20307;-92
2022/07/05 08:14:51;;;;;;;7.47;3.10;;;22.80;62.30;;;;;;5050162;28;20237;-90
2022/07/05 08:17:20;;;;;;;9.60;3.80;;;22.80;62.00;;;;;;5046900;28;20628;-89
2022/07/05 08:22:35;;;;;;;9.20;3.97;;;22.90;61.60;;;;;;5057208;28;20239;-92
2022/07/05 08:25:02;;;;;;;7.30;2.97;;;23.00;61.40;;;;;;5046670;28;20202;-91
2022/07/05 08:27:30;;;;;;;17.10;5.90;;;23.00;62.00;;;;;;5037773;28;20211;-90
2022/07/05 08:29:58;;;;;;;9.93;4.00;;;23.10;61.70;;;;;;5038742;28;20202;-89
2022/07/05 08:32:25;;;;;;;12.00;4.63;;;23.10;61.60;;;;;;5037842;28;21195;-90
2022/07/05 08:34:52;;;;;;;10.13;4.17;;;23.20;61.70;;;;;;5047318;28;20289;-92
2022/07/05 08:37:19;;;;;;;16.83;5.90;;;23.30;61.60;;;;;;5047460;28;20346;-89
2022/07/05 08:39:46;;;;;;;9.87;3.47;;;23.30;61.60;;;;;;5050084;28;20212;-89
2022/07/05 08:42:13;;;;;;;8.17;3.03;;;23.40;61.50;;;;;;5049325;28;20223;-91
2022/07/05 08:44:44;;;;;;;9.27;3.70;;;23.40;60.70;;;;;;5051006;28;20214;-90
2022/07/05 08:47:12;;;;;;;9.57;2.97;;;23.50;59.50;;;;;;5050210;28;20202;-90
2022/07/05 08:49:41;;;;;;;9.07;3.57;;;23.60;59.70;;;;;;5050215;28;20252;-90
2022/07/05 08:52:12;;;;;;;9.37;3.17;;;23.70;59.70;;;;;;5049486;28;20214;-88
2022/07/05 08:54:39;;;;;;;7.90;2.87;;;23.80;60.00;;;;;;5049713;28;20208;-90
2022/07/05 08:57:07;;;;;;;8.17;3.33;;;23.90;60.00;;;;;;5048065;28;20660;-89
2022/07/05 08:59:34;;;;;;;8.87;3.13;;;24.00;59.40;;;;;;5047941;28;20216;-90
2022/07/05 09:02:03;;;;;;;7.60;2.50;;;24.10;59.60;;;;;;5045240;28;20261;-90
2022/07/05 09:04:37;;;;;;;8.23;3.17;;;24.30;58.90;;;;;;5049506;28;20234;-90
2022/07/05 09:07:07;;;;;;;7.97;3.37;;;24.40;58.60;;;;;;5048773;28;20208;-92
2022/07/05 09:09:35;;;;;;;7.60;2.93;;;24.50;59.40;;;;;;5048665;28;20208;-90
2022/07/05 09:12:02;;;;;;;8.30;3.37;;;24.70;58.60;;;;;;5038319;28;20287;-89
2022/07/05 09:14:29;;;;;;;7.80;2.90;;;24.80;58.60;;;;;;5029042;28;20431;-90
2022/07/05 09:16:57;;;;;;;8.07;3.20;;;25.10;58.60;;;;;;5045384;28;20208;-89
2022/07/05 09:19:28;;;;;;;10.90;3.60;;;25.20;58.00;;;;;;5048530;28;20637;-90
2022/07/05 09:22:03;;;;;;;8.73;3.63;;;25.40;57.60;;;;;;5046917;28;20239;-90
2022/07/05 09:24:31;;;;;;;6.63;2.63;;;25.50;56.10;;;;;;5047385;28;20245;-90
2022/07/05 09:27:04;;;;;;;8.13;3.17;;;25.60;56.10;;;;;;5047853;28;20207;-91
2022/07/05 09:29:31;;;;;;;6.60;2.87;;;25.70;55.60;;;;;;5038939;28;20315;-91
2022/07/05 09:32:01;;;;;;;5.60;2.43;;;25.80;56.60;;;;;;5046859;28;20239;-92
2022/07/05 09:34:47;;;;;;;9.17;3.73;;;26.00;55.80;;;;;;5048149;28;20294;-89
2022/07/05 09:37:14;;;;;;;8.83;3.87;;;26.10;55.20;;;;;;5003546;28;20648;-91
2022/07/05 09:39:43;;;;;;;8.27;3.10;;;26.10;55.60;;;;;;5048975;28;20255;-89
2022/07/05 09:42:17;;;;;;;6.67;2.60;;;26.20;55.20;;;;;;5047799;28;20211;-90
2022/07/05 09:44:45;;;;;;;7.37;3.17;;;26.30;54.80;;;;;;5048781;28;20261;-90
2022/07/05 09:47:18;;;;;;;5.87;2.47;;;26.40;54.90;;;;;;5040895;28;20208;-89
2022/07/05 09:49:49;;;;;;;8.07;3.50;;;26.50;53.90;;;;;;5044705;28;20212;-90
2022/07/05 09:52:29;;;;;;;6.17;2.77;;;26.60;53.40;;;;;;5047922;28;20254;-90
2022/07/05 09:55:04;;;;;;;11.37;4.47;;;26.70;52.80;;;;;;5045768;28;20729;-92
2022/07/05 09:57:32;;;;;;;6.47;2.97;;;26.80;52.80;;;;;;5047890;28;20211;-91
2022/07/05 10:00:00;;;;;;;10.07;2.87;;;26.90;53.60;;;;;;5047811;28;20258;-90
2022/07/05 10:02:39;;;;;;;6.90;3.30;;;27.00;53.40;;;;;;5044954;28;20942;-90
2022/07/05 10:05:14;;;;;;;7.93;3.23;;;27.00;52.00;;;;;;5046866;28;20660;-90
2022/07/05 10:07:45;;;;;;;7.67;3.13;;;27.10;51.40;;;;;;5048027;28;20215;-89
2022/07/05 10:10:14;;;;;;;6.07;2.97;;;27.20;51.80;;;;;;5048258;28;20286;-92
2022/07/05 10:12:44;;;;;;;6.70;2.67;;;27.20;51.80;;;;;;5050053;28;20238;-90
2022/07/05 10:15:16;;;;;;;8.00;2.63;;;27.30;51.40;;;;;;5047318;28;20212;-91
2022/07/05 10:17:46;;;;;;;5.77;2.63;;;27.30;50.50;;;;;;5047887;28;20200;-92
2022/07/05 10:20:24;;;;;;;5.40;2.40;;;27.40;50.50;;;;;;5047762;28;20220;-90
2022/07/05 10:22:53;;;;;;;5.83;2.73;;;27.40;49.20;;;;;;5049241;28;20235;-93
2022/07/05 10:25:22;;;;;;;16.60;6.00;;;27.50;50.60;;;;;;5043052;28;20196;-91
2022/07/05 10:27:49;;;;;;;5.67;2.17;;;27.50;49.90;;;;;;5045863;28;20238;-90
2022/07/05 10:30:17;;;;;;;7.30;3.43;;;27.50;50.00;;;;;;5047641;28;20208;-92
2022/07/05 10:32:44;;;;;;;7.27;2.77;;;27.60;49.60;;;;;;5046951;28;20208;-90
2022/07/05 10:35:12;;;;;;;6.10;2.80;;;27.60;49.70;;;;;;5048036;28;20700;-89
2022/07/05 10:37:41;;;;;;;6.17;2.80;;;27.60;49.40;;;;;;5047669;28;20207;-93
2022/07/05 10:40:09;;;;;;;6.40;2.60;;;27.70;48.80;;;;;;5047869;28;20223;-91
2022/07/05 10:42:48;;;;;;;6.23;2.53;;;27.70;48.50;;;;;;5039188;28;20676;-91
2022/07/05 10:45:29;;;;;;;6.07;2.93;;;27.70;48.70;;;;;;5027213;28;20204;-90
2022/07/05 10:48:20;;;;;;;9.47;3.60;;;27.80;48.30;;;;;;5044987;28;20218;-91
2022/07/05 10:50:49;;;;;;;5.87;2.80;;;27.80;48.40;;;;;;5046938;28;20200;-91
2022/07/05 10:53:19;;;;;;;3.90;2.10;;;27.90;49.80;;;;;;5047113;28;20228;-91
2022/07/05 10:55:52;;;;;;;6.17;2.17;;;27.90;49.40;;;;;;5045072;28;20231;-90
2022/07/05 10:58:24;;;;;;;9.00;4.07;;;28.00;49.20;;;;;;5046384;28;20236;-89
2022/07/05 11:01:30;;;;;;;8.63;4.13;;;28.10;49.40;;;;;;5042459;28;20204;-91
2022/07/05 11:04:14;;;;;;;5.33;2.67;;;28.20;48.10;;;;;;5031216;28;20227;-91
2022/07/05 11:06:44;;;;;;;6.40;2.60;;;28.20;48.40;;;;;;5046246;28;20250;-90
2022/07/05 11:09:20;;;;;;;5.67;2.70;;;28.20;48.60;;;;;;5045898;28;20206;-92
2022/07/05 11:12:13;;;;;;;6.00;2.97;;;28.30;47.90;;;;;;5046687;28;20648;-90
2022/07/05 11:14:50;;;;;;;7.60;3.60;;;28.30;47.50;;;;;;5046534;28;20865;-91
2022/07/05 11:17:29;;;;;;;5.23;2.70;;;28.40;47.80;;;;;;5045306;28;20668;-90
2022/07/05 11:20:11;;;;;;;6.40;2.30;;;28.40;47.70;;;;;;5046128;28;20281;-90
2022/07/05 11:22:41;;;;;;;5.33;2.47;;;28.40;47.30;;;;;;5041397;28;20282;-91
2022/07/05 11:25:18;;;;;;;4.73;2.47;;;28.40;47.50;;;;;;5048429;28;20631;-92
2022/07/05 11:28:16;;;;;;;6.37;2.47;;;28.40;47.30;;;;;;5051032;28;20199;-91
2022/07/05 11:30:48;;;;;;;5.73;2.60;;;28.50;47.10;;;;;;5047461;28;20245;-88
2022/07/05 11:33:48;;;;;;;8.17;2.80;;;28.50;47.10;;;;;;5049410;28;20262;-90
2022/07/05 11:36:25;;;;;;;4.03;2.23;;;28.50;46.30;;;;;;4992154;28;20216;-90
2022/07/05 11:39:12;;;;;;;5.27;2.47;;;28.50;46.30;;;;;;5050419;28;20269;-89
2022/07/05 11:41:42;;;;;;;5.67;2.30;;;28.50;46.80;;;;;;5050396;28;20211;-92
2022/07/05 11:44:09;;;;;;;5.03;2.60;;;28.50;46.80;;;;;;5049527;28;20224;-91
2022/07/05 11:46:37;;;;;;;5.97;2.63;;;28.50;46.90;;;;;;5049881;28;20216;-90
2022/07/05 11:49:06;;;;;;;5.80;2.90;;;28.50;47.30;;;;;;5041591;28;20224;-90
2022/07/05 11:51:33;;;;;;;4.77;2.33;;;28.60;46.60;;;;;;5030310;28;20870;-93
2022/07/05 11:54:01;;;;;;;5.40;2.83;;;28.60;47.00;;;;;;5038241;28;20634;-92
2022/07/05 11:56:31;;;;;;;5.20;2.50;;;28.60;46.40;;;;;;5048752;28;20361;-91
2022/07/05 11:59:00;;;;;;;5.57;2.53;;;28.60;46.80;;;;;;5048756;28;20199;-92
2022/07/05 12:01:27;;;;;;;4.50;2.17;;;28.70;46.10;;;;;;5050327;28;20215;-92
2022/07/05 12:03:55;;;;;;;5.80;2.93;;;28.70;46.70;;;;;;5052380;28;20286;-92
2022/07/05 12:06:23;;;;;;;5.47;2.43;;;28.70;46.00;;;;;;5058470;28;20218;-92
2022/07/05 12:09:04;;;;;;;11.97;3.73;;;28.70;45.70;;;;;;5049778;28;20235;-92
2022/07/05 12:14:24;;;;;;;10.13;4.83;;;28.80;46.10;;;;;;5051406;28;20207;-89
2022/07/05 12:17:06;;;;;;;5.23;2.63;;;28.80;44.50;;;;;;5045557;28;20315;-92
2022/07/05 12:19:36;;;;;;;6.37;2.83;;;28.80;45.50;;;;;;5046770;28;20207;-92
2022/07/05 12:22:06;;;;;;;8.50;3.87;;;28.80;45.30;;;;;;5049528;28;20204;-91
2022/07/05 12:24:33;;;;;;;8.77;3.30;;;28.80;45.10;;;;;;5047659;28;20243;-92
2022/07/05 12:27:02;;;;;;;8.67;3.47;;;28.90;45.60;;;;;;5048622;28;20226;-90
2022/07/05 12:29:31;;;;;;;5.87;2.90;;;28.90;45.40;;;;;;5048147;28;20200;-93
2022/07/05 12:32:03;;;;;;;6.47;2.93;;;28.90;44.50;;;;;;5044026;28;20204;-91
2022/07/05 12:34:31;;;;;;;4.33;2.23;;;29.00;44.30;;;;;;5049961;28;20562;-91
2022/07/05 12:36:58;;;;;;;5.17;2.67;;;29.00;44.30;;;;;;5049722;28;20228;-92
2022/07/05 12:39:25;;;;;;;5.83;2.80;;;29.00;43.80;;;;;;5049828;28;20787;-92
2022/07/05 12:41:53;;;;;;;7.40;3.50;;;29.10;43.90;;;;;;5048010;28;20204;-92
2022/07/05 12:44:21;;;;;;;8.03;3.93;;;29.10;43.90;;;;;;5046096;28;20226;-92
2022/07/05 12:46:50;;;;;;;5.17;2.57;;;29.10;43.40;;;;;;5045305;28;20218;-91
2022/07/05 12:49:17;;;;;;;7.47;3.37;;;29.10;42.60;;;;;;5046294;28;20293;-90
2022/07/05 12:51:47;;;;;;;7.30;3.47;;;29.20;43.10;;;;;;5037769;28;20227;-90
2022/07/05 12:59:59;;;;;;;7.17;2.83;;;29.10;43.00;;;;;;5047933;28;20625;-90
2022/07/05 13:02:38;;;;;;;6.10;3.20;;;29.10;42.60;;;;;;5047255;28;20219;-93
2022/07/05 13:05:09;;;;;;;13.23;5.27;;;29.00;41.90;;;;;;5047174;28;20320;-92